sensor_id;sensor_type;location;lat;lon;timestamp;P1;durP1;ratioP1;P2;durP2;ratioP2
17614;SDS011;8926;49.720;6.576;2022-07-29T00:00:53;0.60;;;0.60;;
17614;SDS011;8926;49.720;6.576;2022-07-29T00:03:19;0.70;;;0.70;;
17614;SDS011;8926;49.720;6.576;2022-07-29T00:05:44;0.73;;;0.70;;
17614;SDS011;8926;49.720;6.576;2022-07-29T00:08:09;0.80;;;0.80;;
17614;SDS011;8926;49.720;6.576;2022-07-29T00:10:35;0.40;;;0.40;;
17614;SDS011;8926;49.720;6.576;2022-07-29T00:13:00;0.80;;;0.80;;
17614;SDS011;8926;49.720;6.576;2022-07-29T00:15:25;0.60;;;0.60;;
17614;SDS011;8926;49.720;6.576;2022-07-29T00:17:51;0.50;;;0.47;;
17614;SDS011;8926;49.720;6.576;2022-07-29T00:20:16;0.90;;;0.70;;
17614;SDS011;8926;49.720;6.576;2022-07-29T00:22:41;1.13;;;0.70;;
17614;SDS011;8926;49.720;6.576;2022-07-29T00:25:07;0.73;;;0.70;;
17614;SDS011;8926;49.720;6.576;2022-07-29T00:27:34;0.60;;;0.60;;
17614;SDS011;8926;49.720;6.576;2022-07-29T00:30:00;0.60;;;0.60;;
17614;SDS011;8926;49.720;6.576;2022-07-29T00:32:26;0.50;;;0.50;;
17614;SDS011;8926;49.720;6.576;2022-07-29T00:34:51;0.83;;;0.40;;
17614;SDS011;8926;49.720;6.576;2022-07-29T00:37:35;0.40;;;0.40;;
17614;SDS011;8926;49.720;6.576;2022-07-29T00:40:00;0.47;;;0.43;;
17614;SDS011;8926;49.720;6.576;2022-07-29T00:42:26;0.47;;;0.43;;
17614;SDS011;8926;49.720;6.576;2022-07-29T00:44:51;0.40;;;0.40;;
17614;SDS011;8926;49.720;6.576;2022-07-29T00:47:16;1.20;;;0.90;;
17614;SDS011;8926;49.720;6.576;2022-07-29T00:49:42;1.00;;;1.00;;
17614;SDS011;8926;49.720;6.576;2022-07-29T00:52:08;0.67;;;0.67;;
17614;SDS011;8926;49.720;6.576;2022-07-29T00:54:34;0.70;;;0.70;;
17614;SDS011;8926;49.720;6.576;2022-07-29T00:57:00;0.60;;;0.60;;
17614;SDS011;8926;49.720;6.576;2022-07-29T00:59:27;0.40;;;0.40;;
17614;SDS011;8926;49.720;6.576;2022-07-29T01:01:52;0.60;;;0.60;;
17614;SDS011;8926;49.720;6.576;2022-07-29T01:04:18;0.63;;;0.50;;
17614;SDS011;8926;49.720;6.576;2022-07-29T01:06:44;0.50;;;0.50;;
17614;SDS011;8926;49.720;6.576;2022-07-29T01:09:10;0.50;;;0.50;;
17614;SDS011;8926;49.720;6.576;2022-07-29T01:11:36;0.50;;;0.50;;
17614;SDS011;8926;49.720;6.576;2022-07-29T01:14:02;1.13;;;0.70;;
17614;SDS011;8926;49.720;6.576;2022-07-29T01:16:31;0.67;;;0.67;;
17614;SDS011;8926;49.720;6.576;2022-07-29T01:19:05;0.70;;;0.70;;
17614;SDS011;8926;49.720;6.576;2022-07-29T01:21:50;0.60;;;0.60;;
17614;SDS011;8926;49.720;6.576;2022-07-29T01:26:59;0.60;;;0.60;;
17614;SDS011;8926;49.720;6.576;2022-07-29T01:29:45;0.57;;;0.57;;
17614;SDS011;8926;49.720;6.576;2022-07-29T01:32:18;1.20;;;0.60;;
17614;SDS011;8926;49.720;6.576;2022-07-29T01:34:48;0.43;;;0.43;;
17614;SDS011;8926;49.720;6.576;2022-07-29T01:37:18;0.50;;;0.50;;
17614;SDS011;8926;49.720;6.576;2022-07-29T01:39:49;0.70;;;0.70;;
17614;SDS011;8926;49.720;6.576;2022-07-29T01:44:52;0.77;;;0.77;;
17614;SDS011;8926;49.720;6.576;2022-07-29T01:47:23;0.53;;;0.53;;
17614;SDS011;8926;49.720;6.576;2022-07-29T01:49:54;0.70;;;0.70;;
17614;SDS011;8926;49.720;6.576;2022-07-29T01:52:24;0.73;;;0.73;;
17614;SDS011;8926;49.720;6.576;2022-07-29T01:54:57;1.47;;;1.20;;
17614;SDS011;8926;49.720;6.576;2022-07-29T01:57:28;0.60;;;0.60;;
17614;SDS011;8926;49.720;6.576;2022-07-29T01:59:56;1.17;;;0.80;;
17614;SDS011;8926;49.720;6.576;2022-07-29T02:02:23;0.80;;;0.80;;
17614;SDS011;8926;49.720;6.576;2022-07-29T02:04:51;0.70;;;0.70;;
17614;SDS011;8926;49.720;6.576;2022-07-29T02:07:20;0.80;;;0.60;;
17614;SDS011;8926;49.720;6.576;2022-07-29T02:09:47;0.50;;;0.50;;
17614;SDS011;8926;49.720;6.576;2022-07-29T02:12:14;0.77;;;0.77;;
17614;SDS011;8926;49.720;6.576;2022-07-29T02:14:44;0.50;;;0.50;;
17614;SDS011;8926;49.720;6.576;2022-07-29T02:17:12;0.60;;;0.60;;
17614;SDS011;8926;49.720;6.576;2022-07-29T02:19:40;0.70;;;0.70;;
17614;SDS011;8926;49.720;6.576;2022-07-29T02:22:09;0.67;;;0.67;;
17614;SDS011;8926;49.720;6.576;2022-07-29T02:24:37;0.50;;;0.50;;
17614;SDS011;8926;49.720;6.576;2022-07-29T02:27:05;0.50;;;0.50;;
17614;SDS011;8926;49.720;6.576;2022-07-29T02:29:32;1.23;;;0.70;;
17614;SDS011;8926;49.720;6.576;2022-07-29T02:31:58;0.70;;;0.70;;
17614;SDS011;8926;49.720;6.576;2022-07-29T02:34:25;0.90;;;0.87;;
17614;SDS011;8926;49.720;6.576;2022-07-29T02:36:53;0.60;;;0.60;;
17614;SDS011;8926;49.720;6.576;2022-07-29T02:39:20;1.73;;;0.83;;
17614;SDS011;8926;49.720;6.576;2022-07-29T02:41:48;0.60;;;0.60;;
17614;SDS011;8926;49.720;6.576;2022-07-29T02:44:17;1.00;;;1.00;;
17614;SDS011;8926;49.720;6.576;2022-07-29T02:46:54;0.70;;;0.70;;
17614;SDS011;8926;49.720;6.576;2022-07-29T02:49:32;1.13;;;0.90;;
17614;SDS011;8926;49.720;6.576;2022-07-29T02:52:05;0.70;;;0.70;;
17614;SDS011;8926;49.720;6.576;2022-07-29T02:54:37;0.70;;;0.70;;
17614;SDS011;8926;49.720;6.576;2022-07-29T02:57:08;0.60;;;0.60;;
17614;SDS011;8926;49.720;6.576;2022-07-29T02:59:43;0.50;;;0.50;;
17614;SDS011;8926;49.720;6.576;2022-07-29T03:02:12;0.50;;;0.50;;
17614;SDS011;8926;49.720;6.576;2022-07-29T03:04:39;1.03;;;0.70;;
17614;SDS011;8926;49.720;6.576;2022-07-29T03:07:07;0.60;;;0.60;;
17614;SDS011;8926;49.720;6.576;2022-07-29T03:09:34;0.93;;;0.90;;
17614;SDS011;8926;49.720;6.576;2022-07-29T03:12:00;0.50;;;0.50;;
17614;SDS011;8926;49.720;6.576;2022-07-29T03:14:26;0.80;;;0.80;;
17614;SDS011;8926;49.720;6.576;2022-07-29T03:16:52;0.90;;;0.90;;
17614;SDS011;8926;49.720;6.576;2022-07-29T03:19:18;0.83;;;0.83;;
17614;SDS011;8926;49.720;6.576;2022-07-29T03:21:45;1.00;;;0.93;;
17614;SDS011;8926;49.720;6.576;2022-07-29T03:24:10;0.80;;;0.80;;
17614;SDS011;8926;49.720;6.576;2022-07-29T03:26:50;0.90;;;0.90;;
17614;SDS011;8926;49.720;6.576;2022-07-29T03:29:15;1.00;;;0.90;;
17614;SDS011;8926;49.720;6.576;2022-07-29T03:31:40;1.80;;;1.07;;
17614;SDS011;8926;49.720;6.576;2022-07-29T03:34:06;1.47;;;1.10;;
17614;SDS011;8926;49.720;6.576;2022-07-29T03:36:31;1.03;;;0.87;;
17614;SDS011;8926;49.720;6.576;2022-07-29T03:38:56;0.80;;;0.77;;
17614;SDS011;8926;49.720;6.576;2022-07-29T03:41:22;0.80;;;0.80;;
17614;SDS011;8926;49.720;6.576;2022-07-29T03:43:49;0.70;;;0.70;;
17614;SDS011;8926;49.720;6.576;2022-07-29T03:46:16;2.27;;;0.90;;
17614;SDS011;8926;49.720;6.576;2022-07-29T03:48:45;1.07;;;0.90;;
17614;SDS011;8926;49.720;6.576;2022-07-29T03:51:13;0.80;;;0.80;;
17614;SDS011;8926;49.720;6.576;2022-07-29T03:53:39;0.90;;;0.90;;
17614;SDS011;8926;49.720;6.576;2022-07-29T03:56:04;1.07;;;1.03;;
17614;SDS011;8926;49.720;6.576;2022-07-29T03:58:32;0.90;;;0.80;;
17614;SDS011;8926;49.720;6.576;2022-07-29T04:00:58;0.90;;;0.90;;
17614;SDS011;8926;49.720;6.576;2022-07-29T04:03:23;0.97;;;0.70;;
17614;SDS011;8926;49.720;6.576;2022-07-29T04:05:58;0.70;;;0.70;;
17614;SDS011;8926;49.720;6.576;2022-07-29T04:08:25;0.83;;;0.83;;
17614;SDS011;8926;49.720;6.576;2022-07-29T04:10:51;1.07;;;0.97;;
17614;SDS011;8926;49.720;6.576;2022-07-29T04:13:17;1.40;;;1.03;;
17614;SDS011;8926;49.720;6.576;2022-07-29T04:15:43;0.90;;;0.90;;
17614;SDS011;8926;49.720;6.576;2022-07-29T04:18:08;1.17;;;1.00;;
17614;SDS011;8926;49.720;6.576;2022-07-29T04:20:34;1.47;;;0.90;;
17614;SDS011;8926;49.720;6.576;2022-07-29T04:22:59;0.90;;;0.90;;
17614;SDS011;8926;49.720;6.576;2022-07-29T04:25:24;1.20;;;1.10;;
17614;SDS011;8926;49.720;6.576;2022-07-29T04:27:50;0.60;;;0.60;;
17614;SDS011;8926;49.720;6.576;2022-07-29T04:30:28;0.73;;;0.73;;
17614;SDS011;8926;49.720;6.576;2022-07-29T04:32:55;1.20;;;1.10;;
17614;SDS011;8926;49.720;6.576;2022-07-29T04:35:20;1.30;;;0.90;;
17614;SDS011;8926;49.720;6.576;2022-07-29T04:37:45;1.20;;;1.13;;
17614;SDS011;8926;49.720;6.576;2022-07-29T04:40:11;1.03;;;1.03;;
17614;SDS011;8926;49.720;6.576;2022-07-29T04:42:36;0.93;;;0.93;;
17614;SDS011;8926;49.720;6.576;2022-07-29T04:45:02;0.83;;;0.83;;
17614;SDS011;8926;49.720;6.576;2022-07-29T04:47:28;1.10;;;1.03;;
17614;SDS011;8926;49.720;6.576;2022-07-29T04:49:53;1.20;;;1.10;;
17614;SDS011;8926;49.720;6.576;2022-07-29T04:52:18;1.00;;;1.00;;
17614;SDS011;8926;49.720;6.576;2022-07-29T04:54:44;0.97;;;0.97;;
17614;SDS011;8926;49.720;6.576;2022-07-29T04:57:09;0.90;;;0.90;;
17614;SDS011;8926;49.720;6.576;2022-07-29T04:59:34;1.20;;;1.20;;
17614;SDS011;8926;49.720;6.576;2022-07-29T05:02:00;1.27;;;1.17;;
17614;SDS011;8926;49.720;6.576;2022-07-29T05:04:25;1.20;;;1.20;;
17614;SDS011;8926;49.720;6.576;2022-07-29T05:06:50;0.97;;;0.97;;
17614;SDS011;8926;49.720;6.576;2022-07-29T05:09:15;1.40;;;1.20;;
17614;SDS011;8926;49.720;6.576;2022-07-29T05:11:41;1.37;;;1.27;;
17614;SDS011;8926;49.720;6.576;2022-07-29T05:14:06;0.93;;;0.90;;
17614;SDS011;8926;49.720;6.576;2022-07-29T05:16:31;0.90;;;0.90;;
17614;SDS011;8926;49.720;6.576;2022-07-29T05:18:57;0.90;;;0.90;;
17614;SDS011;8926;49.720;6.576;2022-07-29T05:21:22;1.30;;;1.10;;
17614;SDS011;8926;49.720;6.576;2022-07-29T05:23:47;1.30;;;1.20;;
17614;SDS011;8926;49.720;6.576;2022-07-29T05:26:13;0.80;;;0.80;;
17614;SDS011;8926;49.720;6.576;2022-07-29T05:28:38;1.07;;;1.07;;
17614;SDS011;8926;49.720;6.576;2022-07-29T05:31:03;1.17;;;1.10;;
17614;SDS011;8926;49.720;6.576;2022-07-29T05:33:28;1.00;;;1.00;;
17614;SDS011;8926;49.720;6.576;2022-07-29T05:35:54;1.10;;;1.00;;
17614;SDS011;8926;49.720;6.576;2022-07-29T05:38:19;1.90;;;1.40;;
17614;SDS011;8926;49.720;6.576;2022-07-29T05:40:44;1.17;;;1.17;;
17614;SDS011;8926;49.720;6.576;2022-07-29T05:43:10;1.07;;;1.00;;
17614;SDS011;8926;49.720;6.576;2022-07-29T05:45:35;1.00;;;1.00;;
17614;SDS011;8926;49.720;6.576;2022-07-29T05:48:00;1.43;;;1.33;;
17614;SDS011;8926;49.720;6.576;2022-07-29T05:50:25;1.27;;;1.17;;
17614;SDS011;8926;49.720;6.576;2022-07-29T05:52:51;1.27;;;1.20;;
17614;SDS011;8926;49.720;6.576;2022-07-29T05:55:17;0.93;;;0.93;;
17614;SDS011;8926;49.720;6.576;2022-07-29T05:57:42;1.00;;;1.00;;
17614;SDS011;8926;49.720;6.576;2022-07-29T06:00:09;1.60;;;1.50;;
17614;SDS011;8926;49.720;6.576;2022-07-29T06:02:35;2.10;;;1.00;;
17614;SDS011;8926;49.720;6.576;2022-07-29T06:05:00;1.10;;;1.00;;
17614;SDS011;8926;49.720;6.576;2022-07-29T06:07:26;1.50;;;1.20;;
17614;SDS011;8926;49.720;6.576;2022-07-29T06:09:51;1.63;;;1.10;;
17614;SDS011;8926;49.720;6.576;2022-07-29T06:12:16;1.10;;;1.10;;
17614;SDS011;8926;49.720;6.576;2022-07-29T06:14:41;0.80;;;0.80;;
17614;SDS011;8926;49.720;6.576;2022-07-29T06:17:07;1.03;;;0.93;;
17614;SDS011;8926;49.720;6.576;2022-07-29T06:19:35;1.13;;;1.03;;
17614;SDS011;8926;49.720;6.576;2022-07-29T06:22:01;1.00;;;1.00;;
17614;SDS011;8926;49.720;6.576;2022-07-29T06:24:27;1.17;;;1.07;;
17614;SDS011;8926;49.720;6.576;2022-07-29T06:26:52;1.30;;;1.13;;
17614;SDS011;8926;49.720;6.576;2022-07-29T06:29:17;1.47;;;1.20;;
17614;SDS011;8926;49.720;6.576;2022-07-29T06:31:43;0.87;;;0.87;;
17614;SDS011;8926;49.720;6.576;2022-07-29T06:34:08;1.13;;;1.03;;
17614;SDS011;8926;49.720;6.576;2022-07-29T06:36:34;1.33;;;1.23;;
17614;SDS011;8926;49.720;6.576;2022-07-29T06:39:01;1.40;;;1.30;;
17614;SDS011;8926;49.720;6.576;2022-07-29T06:41:29;1.20;;;1.10;;
17614;SDS011;8926;49.720;6.576;2022-07-29T06:43:54;1.07;;;0.97;;
17614;SDS011;8926;49.720;6.576;2022-07-29T06:46:20;1.00;;;0.93;;
17614;SDS011;8926;49.720;6.576;2022-07-29T06:48:46;1.23;;;1.20;;
17614;SDS011;8926;49.720;6.576;2022-07-29T06:51:15;1.20;;;1.10;;
17614;SDS011;8926;49.720;6.576;2022-07-29T06:53:41;1.93;;;1.00;;
17614;SDS011;8926;49.720;6.576;2022-07-29T06:56:07;1.80;;;1.23;;
17614;SDS011;8926;49.720;6.576;2022-07-29T06:58:37;1.13;;;0.97;;
17614;SDS011;8926;49.720;6.576;2022-07-29T07:01:04;1.23;;;1.13;;
17614;SDS011;8926;49.720;6.576;2022-07-29T07:03:30;1.70;;;1.17;;
17614;SDS011;8926;49.720;6.576;2022-07-29T07:05:56;1.60;;;1.17;;
17614;SDS011;8926;49.720;6.576;2022-07-29T07:08:22;1.17;;;0.90;;
17614;SDS011;8926;49.720;6.576;2022-07-29T07:10:48;1.17;;;1.03;;
17614;SDS011;8926;49.720;6.576;2022-07-29T07:13:14;1.17;;;1.00;;
17614;SDS011;8926;49.720;6.576;2022-07-29T07:15:42;1.47;;;1.30;;
17614;SDS011;8926;49.720;6.576;2022-07-29T07:18:07;1.20;;;1.10;;
17614;SDS011;8926;49.720;6.576;2022-07-29T07:20:33;1.47;;;1.37;;
17614;SDS011;8926;49.720;6.576;2022-07-29T07:22:59;2.07;;;1.07;;
17614;SDS011;8926;49.720;6.576;2022-07-29T07:25:25;1.53;;;1.33;;
17614;SDS011;8926;49.720;6.576;2022-07-29T07:27:50;2.47;;;1.30;;
17614;SDS011;8926;49.720;6.576;2022-07-29T07:30:15;1.53;;;1.43;;
17614;SDS011;8926;49.720;6.576;2022-07-29T07:32:41;1.97;;;1.30;;
17614;SDS011;8926;49.720;6.576;2022-07-29T07:35:07;1.40;;;1.30;;
17614;SDS011;8926;49.720;6.576;2022-07-29T07:37:34;1.33;;;1.23;;
17614;SDS011;8926;49.720;6.576;2022-07-29T07:39:59;1.50;;;1.40;;
17614;SDS011;8926;49.720;6.576;2022-07-29T07:42:25;2.33;;;1.33;;
17614;SDS011;8926;49.720;6.576;2022-07-29T07:44:51;2.70;;;1.33;;
17614;SDS011;8926;49.720;6.576;2022-07-29T07:47:16;2.50;;;1.43;;
17614;SDS011;8926;49.720;6.576;2022-07-29T07:49:45;1.27;;;1.17;;
17614;SDS011;8926;49.720;6.576;2022-07-29T07:52:14;1.43;;;1.33;;
17614;SDS011;8926;49.720;6.576;2022-07-29T07:54:40;1.33;;;1.20;;
17614;SDS011;8926;49.720;6.576;2022-07-29T07:57:06;1.83;;;1.30;;
17614;SDS011;8926;49.720;6.576;2022-07-29T07:59:31;1.23;;;1.13;;
17614;SDS011;8926;49.720;6.576;2022-07-29T08:01:57;1.77;;;1.40;;
17614;SDS011;8926;49.720;6.576;2022-07-29T08:04:22;1.70;;;1.17;;
17614;SDS011;8926;49.720;6.576;2022-07-29T08:06:48;2.07;;;1.63;;
17614;SDS011;8926;49.720;6.576;2022-07-29T08:09:14;1.70;;;1.40;;
17614;SDS011;8926;49.720;6.576;2022-07-29T08:11:40;1.80;;;1.20;;
17614;SDS011;8926;49.720;6.576;2022-07-29T08:14:05;1.40;;;1.27;;
17614;SDS011;8926;49.720;6.576;2022-07-29T08:16:30;1.63;;;1.53;;
17614;SDS011;8926;49.720;6.576;2022-07-29T08:18:55;1.83;;;1.50;;
17614;SDS011;8926;49.720;6.576;2022-07-29T08:21:22;1.67;;;1.47;;
17614;SDS011;8926;49.720;6.576;2022-07-29T08:23:49;1.50;;;1.40;;
17614;SDS011;8926;49.720;6.576;2022-07-29T08:26:17;1.63;;;1.30;;
17614;SDS011;8926;49.720;6.576;2022-07-29T08:28:44;2.67;;;1.50;;
17614;SDS011;8926;49.720;6.576;2022-07-29T08:31:11;1.50;;;1.40;;
17614;SDS011;8926;49.720;6.576;2022-07-29T08:33:37;1.63;;;1.33;;
17614;SDS011;8926;49.720;6.576;2022-07-29T08:36:03;1.40;;;1.30;;
17614;SDS011;8926;49.720;6.576;2022-07-29T08:38:28;1.50;;;1.40;;
17614;SDS011;8926;49.720;6.576;2022-07-29T08:40:54;1.30;;;1.20;;
17614;SDS011;8926;49.720;6.576;2022-07-29T08:43:19;1.10;;;1.00;;
17614;SDS011;8926;49.720;6.576;2022-07-29T08:45:46;1.37;;;1.20;;
17614;SDS011;8926;49.720;6.576;2022-07-29T08:48:14;1.70;;;1.60;;
17614;SDS011;8926;49.720;6.576;2022-07-29T08:50:41;1.33;;;1.23;;
17614;SDS011;8926;49.720;6.576;2022-07-29T08:53:09;1.93;;;1.40;;
17614;SDS011;8926;49.720;6.576;2022-07-29T08:55:38;1.30;;;1.20;;
17614;SDS011;8926;49.720;6.576;2022-07-29T08:58:07;1.17;;;1.07;;
17614;SDS011;8926;49.720;6.576;2022-07-29T09:00:33;1.30;;;1.20;;
17614;SDS011;8926;49.720;6.576;2022-07-29T09:03:01;1.10;;;0.93;;
17614;SDS011;8926;49.720;6.576;2022-07-29T09:05:29;2.07;;;1.23;;
17614;SDS011;8926;49.720;6.576;2022-07-29T09:07:54;1.67;;;1.30;;
17614;SDS011;8926;49.720;6.576;2022-07-29T09:10:20;1.23;;;1.20;;
17614;SDS011;8926;49.720;6.576;2022-07-29T09:12:46;1.47;;;1.30;;
17614;SDS011;8926;49.720;6.576;2022-07-29T09:15:11;2.10;;;1.73;;
17614;SDS011;8926;49.720;6.576;2022-07-29T09:17:44;1.67;;;1.40;;
17614;SDS011;8926;49.720;6.576;2022-07-29T09:20:15;2.27;;;1.60;;
17614;SDS011;8926;49.720;6.576;2022-07-29T09:22:42;1.77;;;1.10;;
17614;SDS011;8926;49.720;6.576;2022-07-29T09:25:07;1.00;;;1.00;;
17614;SDS011;8926;49.720;6.576;2022-07-29T09:27:33;1.40;;;1.30;;
17614;SDS011;8926;49.720;6.576;2022-07-29T09:30:08;1.13;;;1.03;;
17614;SDS011;8926;49.720;6.576;2022-07-29T09:32:54;1.73;;;1.10;;
17614;SDS011;8926;49.720;6.576;2022-07-29T09:35:22;2.10;;;1.00;;
17614;SDS011;8926;49.720;6.576;2022-07-29T09:37:49;1.57;;;1.30;;
17614;SDS011;8926;49.720;6.576;2022-07-29T09:42:42;1.37;;;1.20;;
17614;SDS011;8926;49.720;6.576;2022-07-29T09:45:07;1.30;;;1.00;;
17614;SDS011;8926;49.720;6.576;2022-07-29T09:47:51;1.40;;;1.07;;
17614;SDS011;8926;49.720;6.576;2022-07-29T09:50:16;2.00;;;1.40;;
17614;SDS011;8926;49.720;6.576;2022-07-29T09:52:49;1.20;;;1.10;;
17614;SDS011;8926;49.720;6.576;2022-07-29T09:55:15;1.13;;;1.03;;
17614;SDS011;8926;49.720;6.576;2022-07-29T09:57:41;2.33;;;1.40;;
17614;SDS011;8926;49.720;6.576;2022-07-29T10:00:08;1.90;;;1.20;;
17614;SDS011;8926;49.720;6.576;2022-07-29T10:02:36;1.47;;;1.37;;
17614;SDS011;8926;49.720;6.576;2022-07-29T10:05:03;1.43;;;1.20;;
17614;SDS011;8926;49.720;6.576;2022-07-29T10:07:43;1.97;;;1.30;;
17614;SDS011;8926;49.720;6.576;2022-07-29T10:10:22;1.57;;;1.40;;
17614;SDS011;8926;49.720;6.576;2022-07-29T10:12:50;2.87;;;2.00;;
17614;SDS011;8926;49.720;6.576;2022-07-29T10:15:17;1.80;;;1.70;;
17614;SDS011;8926;49.720;6.576;2022-07-29T10:17:44;1.17;;;1.17;;
17614;SDS011;8926;49.720;6.576;2022-07-29T10:20:10;1.57;;;1.30;;
17614;SDS011;8926;49.720;6.576;2022-07-29T10:22:35;3.13;;;1.20;;
17614;SDS011;8926;49.720;6.576;2022-07-29T10:25:01;1.20;;;1.10;;
17614;SDS011;8926;49.720;6.576;2022-07-29T10:27:27;1.50;;;1.40;;
17614;SDS011;8926;49.720;6.576;2022-07-29T10:29:53;1.20;;;1.10;;
17614;SDS011;8926;49.720;6.576;2022-07-29T10:32:34;1.63;;;1.50;;
17614;SDS011;8926;49.720;6.576;2022-07-29T10:40:45;1.77;;;1.10;;
17614;SDS011;8926;49.720;6.576;2022-07-29T10:43:49;1.10;;;0.90;;
17614;SDS011;8926;49.720;6.576;2022-07-29T10:46:16;1.33;;;1.23;;
17614;SDS011;8926;49.720;6.576;2022-07-29T10:51:54;0.80;;;0.80;;
17614;SDS011;8926;49.720;6.576;2022-07-29T11:07:21;1.60;;;1.17;;
17614;SDS011;8926;49.720;6.576;2022-07-29T11:15:06;1.00;;;1.00;;
17614;SDS011;8926;49.720;6.576;2022-07-29T11:31:38;0.80;;;0.80;;
17614;SDS011;8926;49.720;6.576;2022-07-29T11:39:31;1.40;;;1.20;;
17614;SDS011;8926;49.720;6.576;2022-07-29T11:47:23;2.17;;;1.50;;
17614;SDS011;8926;49.720;6.576;2022-07-29T11:49:49;1.63;;;1.47;;
17614;SDS011;8926;49.720;6.576;2022-07-29T11:52:16;1.33;;;1.23;;
17614;SDS011;8926;49.720;6.576;2022-07-29T11:54:42;1.50;;;1.40;;
17614;SDS011;8926;49.720;6.576;2022-07-29T11:57:08;1.40;;;1.30;;
17614;SDS011;8926;49.720;6.576;2022-07-29T11:59:40;1.13;;;1.03;;
17614;SDS011;8926;49.720;6.576;2022-07-29T12:02:06;1.37;;;1.27;;
17614;SDS011;8926;49.720;6.576;2022-07-29T12:04:33;1.40;;;1.30;;
17614;SDS011;8926;49.720;6.576;2022-07-29T12:06:58;1.50;;;1.40;;
17614;SDS011;8926;49.720;6.576;2022-07-29T12:09:24;2.40;;;1.40;;
17614;SDS011;8926;49.720;6.576;2022-07-29T12:11:55;2.40;;;1.60;;
17614;SDS011;8926;49.720;6.576;2022-07-29T12:14:25;1.60;;;1.50;;
17614;SDS011;8926;49.720;6.576;2022-07-29T12:16:51;1.40;;;1.30;;
17614;SDS011;8926;49.720;6.576;2022-07-29T12:19:17;1.77;;;1.50;;
17614;SDS011;8926;49.720;6.576;2022-07-29T12:21:43;1.30;;;1.20;;
17614;SDS011;8926;49.720;6.576;2022-07-29T12:24:12;2.23;;;1.60;;
17614;SDS011;8926;49.720;6.576;2022-07-29T12:26:51;1.70;;;1.60;;
17614;SDS011;8926;49.720;6.576;2022-07-29T12:29:17;1.60;;;1.50;;
17614;SDS011;8926;49.720;6.576;2022-07-29T12:31:43;1.40;;;1.40;;
17614;SDS011;8926;49.720;6.576;2022-07-29T12:34:10;1.40;;;1.30;;
17614;SDS011;8926;49.720;6.576;2022-07-29T12:36:36;0.90;;;0.90;;
17614;SDS011;8926;49.720;6.576;2022-07-29T12:39:02;1.60;;;1.50;;
17614;SDS011;8926;49.720;6.576;2022-07-29T12:41:28;2.13;;;1.83;;
17614;SDS011;8926;49.720;6.576;2022-07-29T12:43:54;1.30;;;1.20;;
17614;SDS011;8926;49.720;6.576;2022-07-29T12:46:20;1.43;;;1.30;;
17614;SDS011;8926;49.720;6.576;2022-07-29T12:48:49;2.80;;;1.20;;
17614;SDS011;8926;49.720;6.576;2022-07-29T12:51:25;1.33;;;1.23;;
17614;SDS011;8926;49.720;6.576;2022-07-29T12:54:06;2.87;;;1.67;;
17614;SDS011;8926;49.720;6.576;2022-07-29T12:56:37;1.90;;;1.30;;
17614;SDS011;8926;49.720;6.576;2022-07-29T12:59:13;1.27;;;1.13;;
17614;SDS011;8926;49.720;6.576;2022-07-29T13:01:39;1.20;;;1.20;;
17614;SDS011;8926;49.720;6.576;2022-07-29T13:04:05;0.83;;;0.83;;
17614;SDS011;8926;49.720;6.576;2022-07-29T13:06:34;0.80;;;0.80;;
17614;SDS011;8926;49.720;6.576;2022-07-29T13:09:04;0.80;;;0.80;;
17614;SDS011;8926;49.720;6.576;2022-07-29T13:11:37;1.20;;;1.20;;
17614;SDS011;8926;49.720;6.576;2022-07-29T13:14:04;1.30;;;1.20;;
17614;SDS011;8926;49.720;6.576;2022-07-29T13:16:31;1.03;;;1.03;;
17614;SDS011;8926;49.720;6.576;2022-07-29T13:19:07;1.00;;;1.00;;
17614;SDS011;8926;49.720;6.576;2022-07-29T13:21:36;0.90;;;0.90;;
17614;SDS011;8926;49.720;6.576;2022-07-29T13:24:03;0.90;;;0.90;;
17614;SDS011;8926;49.720;6.576;2022-07-29T13:26:30;0.93;;;0.93;;
17614;SDS011;8926;49.720;6.576;2022-07-29T13:28:56;1.70;;;1.20;;
17614;SDS011;8926;49.720;6.576;2022-07-29T13:31:22;0.97;;;0.80;;
17614;SDS011;8926;49.720;6.576;2022-07-29T13:33:47;2.40;;;1.40;;
17614;SDS011;8926;49.720;6.576;2022-07-29T13:36:12;1.93;;;1.20;;
17614;SDS011;8926;49.720;6.576;2022-07-29T13:38:38;1.90;;;1.20;;
17614;SDS011;8926;49.720;6.576;2022-07-29T13:41:03;0.90;;;0.90;;
17614;SDS011;8926;49.720;6.576;2022-07-29T13:43:29;0.73;;;0.73;;
17614;SDS011;8926;49.720;6.576;2022-07-29T13:45:54;0.70;;;0.70;;
17614;SDS011;8926;49.720;6.576;2022-07-29T13:48:20;0.97;;;0.97;;
17614;SDS011;8926;49.720;6.576;2022-07-29T13:50:45;0.90;;;0.90;;
17614;SDS011;8926;49.720;6.576;2022-07-29T13:53:11;0.70;;;0.70;;
17614;SDS011;8926;49.720;6.576;2022-07-29T13:55:37;0.70;;;0.70;;
17614;SDS011;8926;49.720;6.576;2022-07-29T13:58:02;0.90;;;0.90;;
17614;SDS011;8926;49.720;6.576;2022-07-29T14:00:28;0.73;;;0.73;;
17614;SDS011;8926;49.720;6.576;2022-07-29T14:02:53;1.67;;;1.10;;
17614;SDS011;8926;49.720;6.576;2022-07-29T14:05:19;0.80;;;0.80;;
17614;SDS011;8926;49.720;6.576;2022-07-29T14:07:44;0.60;;;0.60;;
17614;SDS011;8926;49.720;6.576;2022-07-29T14:10:09;1.53;;;1.43;;
17614;SDS011;8926;49.720;6.576;2022-07-29T14:12:35;1.70;;;1.17;;
17614;SDS011;8926;49.720;6.576;2022-07-29T14:15:00;1.10;;;1.10;;
17614;SDS011;8926;49.720;6.576;2022-07-29T14:17:25;1.40;;;1.30;;
17614;SDS011;8926;49.720;6.576;2022-07-29T14:19:51;0.90;;;0.90;;
17614;SDS011;8926;49.720;6.576;2022-07-29T14:22:16;0.97;;;0.80;;
17614;SDS011;8926;49.720;6.576;2022-07-29T14:24:43;0.97;;;0.97;;
17614;SDS011;8926;49.720;6.576;2022-07-29T14:27:09;0.80;;;0.80;;
17614;SDS011;8926;49.720;6.576;2022-07-29T14:29:34;0.60;;;0.60;;
17614;SDS011;8926;49.720;6.576;2022-07-29T14:32:00;0.83;;;0.83;;
17614;SDS011;8926;49.720;6.576;2022-07-29T14:34:25;2.00;;;1.20;;
17614;SDS011;8926;49.720;6.576;2022-07-29T14:36:50;1.87;;;1.30;;
17614;SDS011;8926;49.720;6.576;2022-07-29T14:39:15;1.20;;;1.10;;
17614;SDS011;8926;49.720;6.576;2022-07-29T14:41:41;1.00;;;1.00;;
17614;SDS011;8926;49.720;6.576;2022-07-29T14:44:07;1.40;;;1.30;;
17614;SDS011;8926;49.720;6.576;2022-07-29T14:46:32;1.60;;;1.30;;
17614;SDS011;8926;49.720;6.576;2022-07-29T14:48:57;1.50;;;1.20;;
17614;SDS011;8926;49.720;6.576;2022-07-29T14:51:22;1.50;;;1.37;;
17614;SDS011;8926;49.720;6.576;2022-07-29T14:53:48;1.30;;;1.20;;
17614;SDS011;8926;49.720;6.576;2022-07-29T14:56:13;0.80;;;0.80;;
17614;SDS011;8926;49.720;6.576;2022-07-29T14:58:38;1.50;;;1.30;;
17614;SDS011;8926;49.720;6.576;2022-07-29T15:01:04;1.40;;;1.30;;
17614;SDS011;8926;49.720;6.576;2022-07-29T15:03:29;1.20;;;1.20;;
17614;SDS011;8926;49.720;6.576;2022-07-29T15:05:54;1.43;;;1.33;;
17614;SDS011;8926;49.720;6.576;2022-07-29T15:08:20;1.90;;;1.40;;
17614;SDS011;8926;49.720;6.576;2022-07-29T15:10:45;1.20;;;1.10;;
17614;SDS011;8926;49.720;6.576;2022-07-29T15:13:11;1.90;;;1.80;;
17614;SDS011;8926;49.720;6.576;2022-07-29T15:15:36;1.80;;;1.53;;
17614;SDS011;8926;49.720;6.576;2022-07-29T15:18:02;0.90;;;0.90;;
17614;SDS011;8926;49.720;6.576;2022-07-29T15:20:27;1.60;;;1.50;;
17614;SDS011;8926;49.720;6.576;2022-07-29T15:22:53;1.10;;;1.10;;
17614;SDS011;8926;49.720;6.576;2022-07-29T15:25:20;1.40;;;1.30;;
17614;SDS011;8926;49.720;6.576;2022-07-29T15:27:46;0.80;;;0.80;;
17614;SDS011;8926;49.720;6.576;2022-07-29T15:30:11;1.07;;;1.07;;
17614;SDS011;8926;49.720;6.576;2022-07-29T15:32:37;0.73;;;0.60;;
17614;SDS011;8926;49.720;6.576;2022-07-29T15:35:02;0.50;;;0.50;;
17614;SDS011;8926;49.720;6.576;2022-07-29T15:37:28;0.43;;;0.40;;
17614;SDS011;8926;49.720;6.576;2022-07-29T15:39:53;3.10;;;1.03;;
17614;SDS011;8926;49.720;6.576;2022-07-29T15:42:19;1.37;;;1.30;;
17614;SDS011;8926;49.720;6.576;2022-07-29T15:44:44;1.33;;;1.23;;
17614;SDS011;8926;49.720;6.576;2022-07-29T15:47:09;0.87;;;0.87;;
17614;SDS011;8926;49.720;6.576;2022-07-29T15:49:35;0.87;;;0.83;;
17614;SDS011;8926;49.720;6.576;2022-07-29T15:52:03;1.10;;;1.10;;
17614;SDS011;8926;49.720;6.576;2022-07-29T15:54:31;0.70;;;0.70;;
17614;SDS011;8926;49.720;6.576;2022-07-29T15:56:57;0.60;;;0.60;;
17614;SDS011;8926;49.720;6.576;2022-07-29T15:59:22;0.60;;;0.60;;